Главная страница
METAR-TAF:

METAR-TAF

Аэропорты :

Аккра, Гана

Котока

широта: 05-36N, долгота: 000-10W, высота над уровнем моря: 68 м

Текущие метеонаблюдения

Эта сводка был подготовлена 22 минут назад, в 02:00 UTC
Ветер 7 Узел от западный-юго-западный
Температура 26°C
Влажность 94%
Давление 1009 hPa
Видимость: 8000 м
небольшая облачность на высоте 1000 фута

METAR: DGAA 230200Z 25007KT 8000 FEW010 26/25 Q1009 NOSIG

Время: 02:22 (02:22 UTC)

Прогноз

Эта сводка был подготовлена 3 часа и 22 минут назад, в 23:00 UTC
Прогноз действительный с 23-го 00 UTC до 24-го 06 UTC
Ветер 5 Узел от западный
Видимость: 8000 м
изменения
С 23-го 06 UTC до 23-го 08 UTC
Видимость: 3000 м
дымка
изменения
С 23-го 10 UTC до 23-го 12 UTC
Ветер 12 Узел от южный
Видимость: 5000 м
небольшая облачность на высоте 3200 фута
мгла

TAF: DGAA 222300Z 2300/2406 27005KT 8000 NSC BECMG 2306/2308 3000 BR BECMG 2310/2312 19012KT 5000 HZ FEW032

Метеонаблюдения и прогнозы для более 4000 аэропортов (сводки METAR и TAF).

Имеющиеся станции представлены на карте желтыми и красными точками.

Чтобы увидеть название станции, наведите на нее мышь.

Затем щелкните, чтобы увидеть метеонаблюдения и метеопрогнозы.

Управление картой: чтобы увеличить масштаб, щелкните зеленые кнопки с черным крестиком; чтобы уменьшить масштаб, щелкните зеленую кнопку с тире; для просмотра соседних карт щелкайте зеленые стрелки.


METAR-TAF: